Time,TemperatureF,DewpointF,PressureIn,WindDirection,WindDirectionDegrees,WindSpeedMPH,WindSpeedGustMPH,Humidity,HourlyPrecipIn,Conditions,Clouds,dailyrainin,SolarRadiationWatts/m^2,SoftwareType,DateUTC
2013-05-25 00:00:00,64.5,28.9,29.89,SSW,202,11.0,20.0,26,0.00,,---,0.00,0.00,VWS V14.01,2013-05-25 07:00:00,
2013-05-25 00:01:00,64.3,29.0,29.89,SW,220,11.0,19.0,26,0.00,,,0.00,0,weatherlink.com 1.10,2013-05-25 07:01:00,
2013-05-25 00:15:00,64.5,27.9,29.89,SW,225,12.0,20.0,25,0.00,,---,0.00,0.00,VWS V14.01,2013-05-25 07:15:00,
2013-05-25 00:16:00,65.0,28.0,29.89,SSW,213,10.0,19.0,25,0.00,,,0.00,0,weatherlink.com 1.10,2013-05-25 07:16:00,
2013-05-25 00:30:00,64.8,29.1,29.89,SSW,202,11.0,20.0,26,0.00,,---,0.00,0.00,VWS V14.01,2013-05-25 07:30:00,
2013-05-25 00:31:00,64.5,29.0,29.89,SSW,203,7.0,20.0,26,0.00,,,0.00,0,weatherlink.com 1.10,2013-05-25 07:31:00,
2013-05-25 00:45:00,64.4,27.8,29.90,SSW,202,10.0,17.0,25,0.00,,---,0.00,0.00,VWS V14.01,2013-05-25 07:45:00,
2013-05-25 00:46:00,64.7,28.0,29.89,SSW,201,7.0,17.0,25,0.00,,,0.00,0,weatherlink.com 1.10,2013-05-25 07:46:00,
2013-05-25 01:00:00,64.8,27.2,29.89,SW,225,9.0,18.0,24,0.00,,---,0.00,0.00,VWS V14.01,2013-05-25 08:00:00,
2013-05-25 01:02:00,65.0,27.0,29.89,WSW,245,7.0,18.0,24,0.00,,,0.00,0,weatherlink.com 1.10,2013-05-25 08:02:00,
2013-05-25 01:15:00,64.9,29.2,29.89,SSW,202,11.0,18.0,26,0.00,,---,0.00,0.00,VWS V14.01,2013-05-25 08:15:00,
2013-05-25 01:17:00,64.0,28.0,29.89,SW,219,10.0,16.0,26,0.00,,,0.00,0,weatherlink.com 1.10,2013-05-25 08:17:00,
2013-05-25 01:30:00,63.6,29.0,29.89,SW,225,10.0,17.0,27,0.00,,---,0.00,0.00,VWS V14.01,2013-05-25 08:30:00,
2013-05-25 01:32:00,63.2,29.0,29.89,SSW,198,16.0,16.0,27,0.00,,,0.00,0,weatherlink.com 1.10,2013-05-25 08:32:00,
2013-05-25 01:45:00,63.0,28.5,29.89,SSW,202,10.0,16.0,27,0.00,,---,0.00,0.00,VWS V14.01,2013-05-25 08:45:00,
2013-05-25 01:47:00,62.9,28.0,29.89,SW,224,12.0,16.0,27,0.00,,,0.00,0,weatherlink.com 1.10,2013-05-25 08:47:00,
2013-05-25 02:00:00,64.8,27.2,29.89,SW,225,9.0,18.0,24,0.00,,---,0.00,0.00,VWS V14.01,2013-05-25 09:00:00,
2013-05-25 02:02:00,62.9,28.0,29.89,WSW,239,8.0,15.0,27,0.00,,,0.00,0,weatherlink.com 1.10,2013-05-25 09:02:00,
2013-05-25 02:15:00,64.9,29.2,29.89,SSW,202,11.0,18.0,26,0.00,,---,0.00,0.00,VWS V14.01,2013-05-25 09:15:00,
2013-05-25 02:17:00,63.1,28.0,29.89,SSW,196,16.0,18.0,27,0.00,,,0.00,0,weatherlink.com 1.10,2013-05-25 09:17:00,
2013-05-25 02:30:00,63.6,29.0,29.89,SW,225,10.0,17.0,27,0.00,,---,0.00,0.00,VWS V14.01,2013-05-25 09:30:00,
2013-05-25 02:32:00,62.9,28.0,29.88,SSW,203,15.0,18.0,27,0.00,,,0.00,0,weatherlink.com 1.10,2013-05-25 09:32:00,
2013-05-25 02:45:00,63.0,28.5,29.88,SSW,202,12.0,20.0,27,0.00,,---,0.00,0.00,VWS V14.01,2013-05-25 09:45:00,
2013-05-25 02:47:00,62.7,29.0,29.88,SW,214,18.0,20.0,28,0.00,,,0.00,0,weatherlink.com 1.10,2013-05-25 09:47:00,
2013-05-25 03:00:00,62.9,28.4,29.89,SW,225,9.0,15.0,27,0.00,,---,0.00,0.00,VWS V14.01,2013-05-25 10:00:00,
2013-05-25 03:02:00,62.9,28.0,29.87,SW,225,11.0,17.0,27,0.00,,,0.00,0,weatherlink.com 1.10,2013-05-25 10:02:00,
2013-05-25 03:15:00,63.3,28.8,29.88,WSW,248,9.0,17.0,27,0.00,,---,0.00,0.00,VWS V14.01,2013-05-25 10:15:00,
2013-05-25 03:17:00,63.4,29.0,29.88,SSW,203,10.0,15.0,27,0.00,,,0.00,0,weatherlink.com 1.10,2013-05-25 10:17:00,
2013-05-25 03:30:00,63.3,28.8,29.88,SW,225,8.0,14.0,27,0.00,,---,0.00,0.00,VWS V14.01,2013-05-25 10:30:00,
2013-05-25 03:32:00,62.9,28.0,29.88,SSW,213,7.0,13.0,27,0.00,,,0.00,0,weatherlink.com 1.10,2013-05-25 10:32:00,
2013-05-25 03:45:00,62.7,28.3,29.88,SSW,202,8.0,16.0,27,0.00,,---,0.00,0.00,VWS V14.01,2013-05-25 10:45:00,
2013-05-25 03:47:00,62.7,28.0,29.88,South,180,7.0,16.0,27,0.00,,,0.00,0,weatherlink.com 1.10,2013-05-25 10:47:00,
2013-05-25 04:00:00,62.5,29.0,29.87,SSW,202,7.0,21.0,28,0.00,,---,0.00,0.00,VWS V14.01,2013-05-25 11:00:00,
2013-05-25 04:02:00,62.1,28.0,29.87,WSW,243,4.0,17.0,28,0.00,,,0.00,0,weatherlink.com 1.10,2013-05-25 11:02:00,
2013-05-25 04:15:00,61.7,28.3,29.88,WSW,248,7.0,16.0,28,0.00,,---,0.00,0.00,VWS V14.01,2013-05-25 11:15:00,
2013-05-25 04:17:00,61.8,27.0,29.88,SW,230,8.0,16.0,27,0.00,,,0.00,0,weatherlink.com 1.10,2013-05-25 11:17:00,
2013-05-25 04:30:00,62.0,27.7,29.88,SW,225,6.0,13.0,27,0.00,,---,0.00,0.00,VWS V14.01,2013-05-25 11:30:00,
2013-05-25 04:32:00,62.1,28.0,29.88,WSW,254,9.0,18.0,27,0.00,,,0.00,0,weatherlink.com 1.10,2013-05-25 11:32:00,
2013-05-25 04:45:00,62.8,29.2,29.88,WSW,248,11.0,20.0,28,0.00,,---,0.00,0.00,VWS V14.01,2013-05-25 11:45:00,
2013-05-25 04:47:00,62.7,29.0,29.88,SW,218,10.0,17.0,28,0.00,,,0.00,0,weatherlink.com 1.10,2013-05-25 11:47:00,
2013-05-25 05:00:00,62.1,28.6,29.87,SSW,202,10.0,16.0,28,0.00,,---,0.00,0.00,VWS V14.01,2013-05-25 12:00:00,
2013-05-25 05:02:00,61.5,28.0,29.87,SSW,209,3.0,14.0,28,0.00,,,0.00,0,weatherlink.com 1.10,2013-05-25 12:02:00,
2013-05-25 05:15:00,61.5,27.2,29.87,SSW,202,7.0,18.0,27,0.00,,---,0.00,0.00,VWS V14.01,2013-05-25 12:15:00,
2013-05-25 05:17:00,61.6,27.0,29.87,WSW,245,5.0,18.0,27,0.00,,,0.00,0,weatherlink.com 1.10,2013-05-25 12:17:00,
2013-05-25 05:30:00,61.4,30.5,29.88,SW,225,6.0,16.0,31,0.00,,---,0.00,0.00,VWS V14.01,2013-05-25 12:30:00,
2013-05-25 05:32:00,61.3,30.0,29.88,SW,232,13.0,16.0,31,0.00,,,0.00,0,weatherlink.com 1.10,2013-05-25 12:32:00,
2013-05-25 05:45:00,61.6,29.1,29.89,SSW,202,8.0,19.0,29,0.00,,---,0.00,4.00,VWS V14.01,2013-05-25 12:45:00,
2013-05-25 05:47:00,61.2,29.0,29.88,South,186,6.0,15.0,29,0.00,,,0.00,12,weatherlink.com 1.10,2013-05-25 12:47:00,
2013-05-25 06:00:00,61.1,28.6,29.88,SW,225,6.0,16.0,29,0.00,,---,0.00,25.00,VWS V14.01,2013-05-25 13:00:00,
2013-05-25 06:02:00,61.2,29.0,29.88,SW,236,7.0,12.0,29,0.00,,,0.00,44,weatherlink.com 1.10,2013-05-25 13:02:00,
2013-05-25 06:15:00,61.3,27.9,29.89,SW,225,6.0,10.0,28,0.00,,---,0.00,65.00,VWS V14.01,2013-05-25 13:15:00,
2013-05-25 06:17:00,61.2,28.0,29.89,SSW,197,8.0,11.0,28,0.00,,,0.00,95,weatherlink.com 1.10,2013-05-25 13:17:00,
2013-05-25 06:30:00,61.4,28.9,29.90,SW,225,8.0,13.0,29,0.00,,---,0.00,116.00,VWS V14.01,2013-05-25 13:30:00,
2013-05-25 06:32:00,62.0,29.0,29.90,SSW,207,10.0,16.0,29,0.00,,,0.00,142,weatherlink.com 1.10,2013-05-25 13:32:00,
2013-05-25 06:45:00,62.1,28.6,29.90,SSW,202,8.0,17.0,28,0.00,,---,0.00,162.00,VWS V14.01,2013-05-25 13:45:00,
2013-05-25 06:47:00,62.4,29.0,29.90,SSW,205,7.0,14.0,28,0.00,,,0.00,188,weatherlink.com 1.10,2013-05-25 13:47:00,
2013-05-25 07:00:00,62.8,29.2,29.90,SSW,202,7.0,13.0,28,0.00,,---,0.00,207.00,VWS V14.01,2013-05-25 14:00:00,
2013-05-25 07:02:00,63.4,30.0,29.91,SSW,209,7.0,17.0,28,0.00,,,0.00,236,weatherlink.com 1.10,2013-05-25 14:02:00,
2013-05-25 07:15:00,63.7,28.2,29.91,WSW,248,6.0,17.0,26,0.00,,---,0.00,257.00,VWS V14.01,2013-05-25 14:15:00,
2013-05-25 07:17:00,64.7,29.0,29.91,WNW,283,3.0,9.0,26,0.00,,,0.00,287,weatherlink.com 1.10,2013-05-25 14:17:00,
2013-05-25 07:30:00,64.5,28.9,29.91,NW,315,3.0,6.0,26,0.00,,---,0.00,309.00,VWS V14.01,2013-05-25 14:30:00,
2013-05-25 07:32:00,64.2,28.0,29.91,NW,319,2.0,6.0,26,0.00,,,0.00,346,weatherlink.com 1.10,2013-05-25 14:32:00,
2013-05-25 07:45:00,64.2,28.6,29.92,North,0,3.0,6.0,26,0.00,,---,0.00,346.00,VWS V14.01,2013-05-25 14:45:00,
2013-05-25 07:48:00,64.5,29.0,29.92,NE,44,4.0,7.0,26,0.00,,,0.00,359,weatherlink.com 1.10,2013-05-25 14:48:00,
2013-05-25 08:00:00,64.8,29.1,29.92,NNE,22,3.0,7.0,26,0.00,,---,0.00,400.00,VWS V14.01,2013-05-25 15:00:00,
2013-05-25 08:03:00,65.3,29.0,29.92,NNE,33,3.0,5.0,26,0.00,,,0.00,466,weatherlink.com 1.10,2013-05-25 15:03:00,
2013-05-25 08:15:00,65.7,29.9,29.92,NE,45,3.0,7.0,26,0.00,,---,0.00,451.00,VWS V14.01,2013-05-25 15:15:00,
2013-05-25 08:18:00,66.1,30.0,29.92,NE,51,6.0,7.0,26,0.00,,,0.00,401,weatherlink.com 1.10,2013-05-25 15:18:00,
2013-05-25 08:30:00,66.2,30.3,29.92,NE,45,5.0,9.0,26,0.00,,---,0.00,480.00,VWS V14.01,2013-05-25 15:30:00,
2013-05-25 08:33:00,66.4,30.0,29.92,ENE,65,5.0,9.0,26,0.00,,,0.00,462,weatherlink.com 1.10,2013-05-25 15:33:00,
2013-05-25 08:45:00,66.6,30.7,29.92,ENE,68,5.0,10.0,26,0.00,,---,0.00,549.00,VWS V14.01,2013-05-25 15:45:00,
2013-05-25 08:48:00,67.1,30.0,29.92,East,93,9.0,9.0,25,0.00,,,0.00,606,weatherlink.com 1.10,2013-05-25 15:48:00,
2013-05-25 09:00:00,67.6,29.6,29.92,East,90,4.0,9.0,24,0.00,,---,0.00,581.00,VWS V14.01,2013-05-25 16:00:00,
2013-05-25 09:03:00,68.3,30.0,29.93,NE,53,2.0,7.0,24,0.00,,,0.00,640,weatherlink.com 1.10,2013-05-25 16:03:00,
2013-05-25 09:15:00,68.8,29.5,29.93,NE,45,4.0,8.0,23,0.00,,---,0.00,672.00,VWS V14.01,2013-05-25 16:15:00,
2013-05-25 09:18:00,69.6,30.0,29.93,ENE,65,4.0,6.0,23,0.00,,,0.00,689,weatherlink.com 1.10,2013-05-25 16:18:00,
2013-05-25 09:30:00,70.1,29.5,29.93,ENE,68,1.0,5.0,22,0.00,,---,0.00,640.00,VWS V14.01,2013-05-25 16:30:00,
2013-05-25 09:33:00,70.8,30.0,29.93,NE,52,2.0,4.0,22,0.00,,,0.00,744,weatherlink.com 1.10,2013-05-25 16:33:00,
2013-05-25 09:45:00,71.5,28.4,29.93,NE,45,1.0,5.0,20,0.00,,---,0.00,705.00,VWS V14.01,2013-05-25 16:45:00,
2013-05-25 09:48:00,72.8,29.0,29.93,SW,221,3.0,5.0,20,0.00,,,0.00,550,weatherlink.com 1.10,2013-05-25 16:48:00,
2013-05-25 10:00:00,73.4,28.7,29.93,South,180,2.0,6.0,19,0.00,,---,0.00,641.00,VWS V14.01,2013-05-25 17:00:00,
2013-05-25 10:03:00,74.4,29.0,29.93,South,180,2.0,4.0,19,0.00,,,0.00,663,weatherlink.com 1.10,2013-05-25 17:03:00,
2013-05-25 10:15:00,74.7,28.4,29.93,South,180,1.0,3.0,18,0.00,,---,0.00,705.00,VWS V14.01,2013-05-25 17:15:00,
2013-05-25 10:18:00,75.3,29.0,29.93,East,97,2.0,5.0,18,0.00,,,0.00,819,weatherlink.com 1.10,2013-05-25 17:18:00,
2013-05-25 10:30:00,75.2,28.8,29.92,East,90,3.0,8.0,18,0.00,,---,0.00,834.00,VWS V14.01,2013-05-25 17:30:00,
2013-05-25 10:33:00,74.7,28.0,29.93,ENE,61,6.0,8.0,18,0.00,,,0.00,824,weatherlink.com 1.10,2013-05-25 17:33:00,
2013-05-25 10:45:00,74.7,28.4,29.92,NNE,22,3.0,7.0,18,0.00,,---,0.00,855.00,VWS V14.01,2013-05-25 17:45:00,
2013-05-25 10:48:00,74.7,28.0,29.93,East,83,3.0,7.0,18,0.00,,,0.00,833,weatherlink.com 1.10,2013-05-25 17:48:00,
2013-05-25 11:00:00,75.5,27.7,29.93,East,90,2.0,7.0,17,0.00,,---,0.00,867.00,VWS V14.01,2013-05-25 18:00:00,
2013-05-25 11:03:00,76.0,28.0,29.93,NNE,29,2.0,6.0,17,0.00,,,0.00,949,weatherlink.com 1.10,2013-05-25 18:03:00,
2013-05-25 11:15:00,76.2,28.2,29.92,East,90,3.0,10.0,17,0.00,,---,0.00,937.00,VWS V14.01,2013-05-25 18:15:00,
2013-05-25 11:18:00,76.5,28.0,29.93,ENE,74,7.0,11.0,17,0.00,,,0.00,949,weatherlink.com 1.10,2013-05-25 18:18:00,
2013-05-25 11:30:00,76.6,27.1,29.92,ENE,68,3.0,11.0,16,0.00,,---,0.00,956.00,VWS V14.01,2013-05-25 18:30:00,
2013-05-25 11:33:00,77.4,28.0,29.93,ESE,104,6.0,10.0,16,0.00,,,0.00,967,weatherlink.com 1.10,2013-05-25 18:33:00,
2013-05-25 11:45:00,77.6,26.3,29.92,ENE,68,4.0,9.0,15,0.00,,---,0.00,975.00,VWS V14.01,2013-05-25 18:45:00,
2013-05-25 11:48:00,77.9,27.0,29.92,NE,41,2.0,6.0,15,0.00,,,0.00,983,weatherlink.com 1.10,2013-05-25 18:48:00,
2013-05-25 12:00:00,78.3,25.2,29.92,NE,45,5.0,11.0,14,0.00,,---,0.00,987.00,VWS V14.01,2013-05-25 19:00:00,
2013-05-25 12:03:00,79.0,26.0,29.91,ESE,111,0.0,9.0,14,0.00,,,0.00,993,weatherlink.com 1.10,2013-05-25 19:03:00,
2013-05-25 12:15:00,79.3,26.0,29.91,NNE,22,4.0,10.0,14,0.00,,---,0.00,999.00,VWS V14.01,2013-05-25 19:15:00,
2013-05-25 12:18:00,79.8,26.0,29.91,ENE,70,4.0,8.0,14,0.00,,,0.00,1005,weatherlink.com 1.10,2013-05-25 19:18:00,
2013-05-25 12:30:00,79.8,26.4,29.91,ENE,68,5.0,11.0,14,0.00,,---,0.00,1005.00,VWS V14.01,2013-05-25 19:30:00,
2013-05-25 12:33:00,79.9,27.0,29.91,ENE,60,2.0,11.0,14,0.00,,,0.00,1005,weatherlink.com 1.10,2013-05-25 19:33:00,
2013-05-25 12:45:00,80.1,26.6,29.90,ENE,68,3.0,13.0,14,0.00,,---,0.00,1008.00,VWS V14.01,2013-05-25 19:45:00,
2013-05-25 12:48:00,80.5,29.0,29.90,NE,49,5.0,12.0,15,0.00,,,0.00,1007,weatherlink.com 1.10,2013-05-25 19:48:00,
2013-05-25 13:00:00,80.9,27.3,29.90,NE,45,4.0,11.0,14,0.00,,---,0.00,1007.00,VWS V14.01,2013-05-25 20:00:00,
2013-05-25 13:03:00,81.2,28.0,29.90,ENE,77,5.0,11.0,14,0.00,,,0.00,1007,weatherlink.com 1.10,2013-05-25 20:03:00,
2013-05-25 13:15:00,81.3,27.6,29.89,North,0,4.0,11.0,14,0.00,,---,0.00,1004.00,VWS V14.01,2013-05-25 20:15:00,
2013-05-25 13:18:00,81.8,28.0,29.89,ENE,66,5.0,10.0,14,0.00,,,0.00,998,weatherlink.com 1.10,2013-05-25 20:18:00,
2013-05-25 13:30:00,81.8,26.2,29.89,ENE,68,5.0,13.0,13,0.00,,---,0.00,996.00,VWS V14.01,2013-05-25 20:30:00,
2013-05-25 13:33:00,82.6,25.0,29.89,ENE,77,9.0,17.0,12,0.00,,,0.00,990,weatherlink.com 1.10,2013-05-25 20:33:00,
2013-05-25 13:45:00,83.2,23.3,29.88,ENE,68,7.0,18.0,11,0.00,,---,0.00,985.00,VWS V14.01,2013-05-25 20:45:00,
2013-05-25 13:49:00,83.6,24.0,29.88,North,354,2.0,18.0,11,0.00,,,0.00,977,weatherlink.com 1.10,2013-05-25 20:49:00,
2013-05-25 14:00:00,84.2,21.8,29.88,NNE,22,3.0,10.0,10,0.00,,---,0.00,973.00,VWS V14.01,2013-05-25 21:00:00,
2013-05-25 14:04:00,86.1,21.0,29.88,SSE,150,4.0,11.0,9,0.00,,,0.00,962,weatherlink.com 1.10,2013-05-25 21:04:00,
2013-05-25 14:15:00,87.0,21.4,29.87,SSW,202,9.0,18.0,9,0.00,,---,0.00,956.00,VWS V14.01,2013-05-25 21:15:00,
2013-05-25 14:19:00,87.4,22.0,29.87,WSW,243,8.0,17.0,9,0.00,,,0.00,942,weatherlink.com 1.10,2013-05-25 21:19:00,
2013-05-25 14:30:00,87.5,21.8,29.87,SSW,202,9.0,18.0,9,0.00,,---,0.00,933.00,VWS V14.01,2013-05-25 21:30:00,
2013-05-25 14:34:00,87.4,22.0,29.87,South,183,5.0,22.0,9,0.00,,,0.00,916,weatherlink.com 1.10,2013-05-25 21:34:00,
2013-05-25 14:45:00,87.8,19.2,29.86,SSE,158,9.0,22.0,8,0.00,,---,0.00,909.00,VWS V14.01,2013-05-25 21:45:00,
2013-05-25 14:49:00,87.8,19.0,29.87,SSW,196,8.0,21.0,8,0.00,,,0.00,889,weatherlink.com 1.10,2013-05-25 21:49:00,
2013-05-25 15:00:00,88.0,19.4,29.86,SSE,158,9.0,20.0,8,0.00,,---,0.00,882.00,VWS V14.01,2013-05-25 22:00:00,
2013-05-25 15:04:00,88.0,20.0,29.86,SW,233,13.0,17.0,8,0.00,,,0.00,861,weatherlink.com 1.10,2013-05-25 22:04:00,
2013-05-25 15:15:00,88.0,19.4,29.86,SSW,202,9.0,19.0,8,0.00,,---,0.00,851.00,VWS V14.01,2013-05-25 22:15:00,
2013-05-25 15:19:00,88.4,20.0,29.85,South,185,9.0,15.0,8,0.00,,,0.00,828,weatherlink.com 1.10,2013-05-25 22:19:00,
2013-05-25 15:30:00,88.4,22.5,29.84,SSW,202,9.0,21.0,9,0.00,,---,0.00,813.00,VWS V14.01,2013-05-25 22:30:00,
2013-05-25 15:34:00,88.4,23.0,29.84,SSW,205,11.0,17.0,9,0.00,,,0.00,786,weatherlink.com 1.10,2013-05-25 22:34:00,
2013-05-25 15:45:00,88.0,24.7,29.84,South,180,12.0,21.0,10,0.00,,---,0.00,775.00,VWS V14.01,2013-05-25 22:45:00,
2013-05-25 15:49:00,87.8,25.0,29.84,SW,215,10.0,22.0,10,0.00,,,0.00,747,weatherlink.com 1.10,2013-05-25 22:49:00,
2013-05-25 16:00:00,87.6,24.4,29.84,SSW,202,13.0,23.0,10,0.00,,---,0.00,733.00,VWS V14.01,2013-05-25 23:00:00,
2013-05-25 16:04:00,87.0,24.0,29.84,SSW,210,17.0,22.0,10,0.00,,,0.00,708,weatherlink.com 1.10,2013-05-25 23:04:00,
2013-05-25 16:15:00,86.8,21.3,29.84,SSW,202,14.0,30.0,9,0.00,,---,0.00,692.00,VWS V14.01,2013-05-25 23:15:00,
2013-05-25 16:19:00,86.3,21.0,29.84,South,189,18.0,25.0,9,0.00,,,0.00,664,weatherlink.com 1.10,2013-05-25 23:19:00,
2013-05-25 16:30:00,86.2,20.8,29.84,SSW,202,14.0,23.0,9,0.00,,---,0.00,647.00,VWS V14.01,2013-05-25 23:30:00,
2013-05-25 16:34:00,86.3,21.0,29.84,SSW,195,14.0,24.0,9,0.00,,,0.00,617,weatherlink.com 1.10,2013-05-25 23:34:00,
2013-05-25 16:45:00,86.2,18.1,29.83,SSW,202,14.0,25.0,8,0.00,,---,0.00,596.00,VWS V14.01,2013-05-25 23:45:00,
2013-05-25 16:49:00,85.9,18.0,29.83,SW,220,14.0,21.0,8,0.00,,,0.00,79,weatherlink.com 1.10,2013-05-25 23:49:00,
2013-05-25 17:00:00,85.8,23.0,29.83,SSW,202,14.0,22.0,10,0.00,,---,0.00,450.00,VWS V14.01,2013-05-26 00:00:00,
2013-05-25 17:04:00,85.5,23.0,29.83,SW,216,13.0,22.0,10,0.00,,,0.00,522,weatherlink.com 1.10,2013-05-26 00:04:00,
2013-05-25 17:15:00,85.2,22.5,29.83,SSW,202,15.0,30.0,10,0.00,,---,0.00,509.00,VWS V14.01,2013-05-26 00:15:00,
2013-05-25 17:19:00,84.9,22.0,29.83,SW,223,13.0,30.0,10,0.00,,,0.00,476,weatherlink.com 1.10,2013-05-26 00:19:00,
2013-05-25 17:30:00,84.8,19.8,29.83,SW,225,14.0,27.0,9,0.00,,---,0.00,462.00,VWS V14.01,2013-05-26 00:30:00,
2013-05-25 17:34:00,84.7,20.0,29.83,WSW,256,17.0,22.0,9,0.00,,,0.00,427,weatherlink.com 1.10,2013-05-26 00:34:00,
2013-05-25 17:45:00,84.5,19.5,29.83,WSW,248,14.0,24.0,9,0.00,,---,0.00,413.00,VWS V14.01,2013-05-26 00:45:00,
2013-05-25 17:49:00,83.6,19.0,29.82,WSW,238,11.0,24.0,9,0.00,,,0.00,378,weatherlink.com 1.10,2013-05-26 00:49:00,
2013-05-25 18:00:00,83.2,18.6,29.83,WSW,248,16.0,28.0,9,0.00,,---,0.00,362.00,VWS V14.01,2013-05-26 01:00:00,
2013-05-25 18:04:00,82.6,18.0,29.83,WSW,248,26.0,27.0,9,0.00,,,0.00,329,weatherlink.com 1.10,2013-05-26 01:04:00,
2013-05-25 18:15:00,82.2,17.8,29.83,West,270,15.0,26.0,9,0.00,,---,0.00,313.00,VWS V14.01,2013-05-26 01:15:00,
2013-05-25 18:19:00,81.8,18.0,29.83,WSW,243,13.0,24.0,9,0.00,,,0.00,278,weatherlink.com 1.10,2013-05-26 01:19:00,
2013-05-25 18:30:00,81.5,19.7,29.84,West,270,14.0,23.0,10,0.00,,---,0.00,263.00,VWS V14.01,2013-05-26 01:30:00,
2013-05-25 18:34:00,80.9,19.0,29.83,WNW,283,12.0,24.0,10,0.00,,,0.00,229,weatherlink.com 1.10,2013-05-26 01:34:00,
2013-05-25 18:45:00,80.5,21.2,29.84,West,270,14.0,28.0,11,0.00,,---,0.00,212.00,VWS V14.01,2013-05-26 01:45:00,
2013-05-25 18:49:00,79.8,19.0,29.84,WNW,295,9.0,23.0,10,0.00,,,0.00,185,weatherlink.com 1.10,2013-05-26 01:49:00,
2013-05-25 19:00:00,79.5,18.2,29.84,West,270,14.0,23.0,10,0.00,,---,0.00,171.00,VWS V14.01,2013-05-26 02:00:00,
2013-05-25 19:04:00,79.0,20.0,29.84,West,261,13.0,22.0,11,0.00,,,0.00,139,weatherlink.com 1.10,2013-05-26 02:04:00,
2013-05-25 19:09:00,78.6,19.8,29.84,SW,223,18.0,21.0,11,0.00,,---,0.00,121.00,VWS V14.01,2013-05-26 02:09:00,
2013-05-25 19:14:00,78.3,19.5,29.84,West,268,9.0,22.0,11,0.00,,---,0.00,100.00,VWS V14.01,2013-05-26 02:14:00,
2013-05-25 19:15:00,78.7,21.9,29.84,WSW,248,14.0,24.0,12,0.00,,---,0.00,121.00,VWS V14.01,2013-05-26 02:15:00,
2013-05-25 19:20:00,78.1,21.0,29.84,WSW,246,19.0,22.0,12,0.00,,,0.00,79,weatherlink.com 1.10,2013-05-26 02:20:00,
2013-05-25 19:30:00,77.8,23.1,29.84,WSW,248,14.0,25.0,13,0.00,,---,0.00,69.00,VWS V14.01,2013-05-26 02:30:00,
2013-05-25 19:35:00,76.8,22.0,29.84,WSW,247,7.0,23.0,13,0.00,,,0.00,32,weatherlink.com 1.10,2013-05-26 02:35:00,
2013-05-25 19:45:00,76.6,22.1,29.83,WSW,248,15.0,23.0,13,0.00,,---,0.00,23.00,VWS V14.01,2013-05-26 02:45:00,
2013-05-25 19:50:00,75.8,21.0,29.83,WSW,239,8.0,27.0,13,0.00,,,0.00,9,weatherlink.com 1.10,2013-05-26 02:50:00,
2013-05-25 20:00:00,75.6,23.1,29.84,WSW,248,16.0,27.0,14,0.00,,---,0.00,6.00,VWS V14.01,2013-05-26 03:00:00,
2013-05-25 20:05:00,74.9,22.0,29.84,West,280,11.0,27.0,14,0.00,,,0.00,0,weatherlink.com 1.10,2013-05-26 03:05:00,
2013-05-25 20:15:00,74.8,24.1,29.84,WSW,248,16.0,27.0,15,0.00,,---,0.00,0.00,VWS V14.01,2013-05-26 03:15:00,
2013-05-25 20:20:00,74.0,23.0,29.84,WSW,247,17.0,27.0,15,0.00,,,0.00,0,weatherlink.com 1.10,2013-05-26 03:20:00,
2013-05-25 20:30:00,74.0,25.0,29.84,WSW,248,16.0,27.0,16,0.00,,---,0.00,0.00,VWS V14.01,2013-05-26 03:30:00,
2013-05-25 20:35:00,73.5,25.0,29.84,SW,235,16.0,25.0,16,0.00,,,0.00,0,weatherlink.com 1.10,2013-05-26 03:35:00,
2013-05-25 20:45:00,73.4,24.5,29.85,WSW,248,17.0,31.0,16,0.00,,---,0.00,0.00,VWS V14.01,2013-05-26 03:45:00,
2013-05-25 20:50:00,72.8,25.0,29.85,West,268,15.0,31.0,17,0.00,,,0.00,0,weatherlink.com 1.10,2013-05-26 03:50:00,
2013-05-25 21:00:00,72.6,26.7,29.85,WSW,248,18.0,28.0,18,0.00,,---,0.00,0.00,VWS V14.01,2013-05-26 04:00:00,
2013-05-25 21:05:00,72.0,31.0,29.85,WSW,239,19.0,28.0,22,0.00,,,0.00,0,weatherlink.com 1.10,2013-05-26 04:05:00,
2013-05-25 21:15:00,71.9,26.1,29.86,WSW,248,19.0,29.0,18,0.00,,---,0.00,0.00,VWS V14.01,2013-05-26 04:15:00,
2013-05-25 21:20:00,71.6,26.0,29.86,SW,234,14.0,29.0,18,0.00,,,0.00,0,weatherlink.com 1.10,2013-05-26 04:20:00,
2013-05-25 21:30:00,71.4,25.7,29.86,SW,225,17.0,29.0,18,0.00,,---,0.00,0.00,VWS V14.01,2013-05-26 04:30:00,
2013-05-25 21:35:00,71.3,26.0,29.86,SW,220,21.0,24.0,18,0.00,,,0.00,0,weatherlink.com 1.10,2013-05-26 04:35:00,
2013-05-25 21:45:00,71.2,25.6,29.86,SW,225,17.0,25.0,18,0.00,,---,0.00,0.00,VWS V14.01,2013-05-26 04:45:00,
2013-05-25 21:51:00,70.9,25.0,29.86,SW,235,15.0,25.0,18,0.00,,,0.00,0,weatherlink.com 1.10,2013-05-26 04:51:00,
2013-05-25 22:00:00,71.0,25.4,29.87,SW,225,16.0,24.0,18,0.00,,---,0.00,0.00,VWS V14.01,2013-05-26 05:00:00,
2013-05-25 22:06:00,70.9,25.0,29.87,SSW,200,10.0,24.0,18,0.00,,,0.00,0,weatherlink.com 1.10,2013-05-26 05:06:00,
2013-05-25 22:15:00,70.8,25.2,29.87,SW,225,14.0,22.0,18,0.00,,---,0.00,0.00,VWS V14.01,2013-05-26 05:15:00,
2013-05-25 22:21:00,70.4,25.0,29.86,SW,218,16.0,23.0,18,0.00,,,0.00,0,weatherlink.com 1.10,2013-05-26 05:21:00,
2013-05-25 22:30:00,70.5,25.0,29.87,WSW,248,15.0,23.0,18,0.00,,---,0.00,0.00,VWS V14.01,2013-05-26 05:30:00,
2013-05-25 22:36:00,70.4,25.0,29.87,WSW,249,12.0,22.0,18,0.00,,,0.00,0,weatherlink.com 1.10,2013-05-26 05:36:00,
2013-05-25 22:45:00,70.4,24.9,29.87,WSW,248,15.0,23.0,18,0.00,,---,0.00,0.00,VWS V14.01,2013-05-26 05:45:00,
2013-05-25 22:51:00,70.4,25.0,29.87,SW,223,16.0,25.0,18,0.00,,,0.00,0,weatherlink.com 1.10,2013-05-26 05:51:00,
2013-05-25 23:00:00,70.4,23.5,29.86,WSW,248,15.0,25.0,17,0.00,,---,0.00,0.00,VWS V14.01,2013-05-26 06:00:00,
2013-05-25 23:06:00,70.3,23.0,29.86,SW,236,17.0,26.0,17,0.00,,,0.00,0,weatherlink.com 1.10,2013-05-26 06:06:00,
2013-05-25 23:15:00,70.3,24.8,29.86,SW,225,15.0,26.0,18,0.00,,---,0.00,0.00,VWS V14.01,2013-05-26 06:15:00,
2013-05-25 23:21:00,70.1,25.0,29.86,SW,226,14.0,22.0,18,0.00,,,0.00,0,weatherlink.com 1.10,2013-05-26 06:21:00,
2013-05-25 23:30:00,69.9,24.5,29.86,SW,225,13.0,22.0,18,0.00,,---,0.00,0.00,VWS V14.01,2013-05-26 06:30:00,
2013-05-25 23:36:00,69.6,24.0,29.87,WSW,241,10.0,23.0,18,0.00,,,0.00,0,weatherlink.com 1.10,2013-05-26 06:36:00,
2013-05-25 23:45:00,69.5,25.5,29.87,SW,225,12.0,23.0,19,0.00,,---,0.00,0.00,VWS V14.01,2013-05-26 06:45:00,
2013-05-25 23:51:00,68.8,26.0,29.87,SW,227,11.0,17.0,20,0.00,,,0.00,0,weatherlink.com 1.10,2013-05-26 06:51:00,